Chesterfield, Idaho
Current Conditions -  °F | °C
As of 7:53 PM on Tuesday 21 Oct 2014 (Local Time) from KPIH Reporting Station
Clear Clear  
Wind Chill: 42°   Ceiling: Unl
Heat Index: 47°   Visibility: 10mi
Dew Point: 36°   Wind: 10mph
Humidity: 66%   Direction: 210°SSW
Pressure: 30.09"   Gusts: NA
Location:  42.811°N, 111.938°W
Report Text: KPIH 220153Z 21009KT 10SM CLR 08/02 A3009 RMK AO2 SLP178 T00830022
Loading
Personal Weather Stations






























Interactive Weather Map New forecast layout! Learn more

10-Day Weather Forecast

Advertisements
Track Severe Weather on mobile